Time;durP1;ratioP1;P1;durP2;ratioP2;P2;SDS_P1;SDS_P2;PMS_P1;PMS_P2;Temp;Humidity;BMP_temperature;BMP_pressure;BME280_temperature;BME280_humidity;BME280_pressure;Samples;Min_cycle;Max_cycle;Signal;HPM_P1;HPM_P2
2021/04/28 00:01:58;;;;;;;18.63;12.52;;;;;;;22.15;33.01;93909.94;5099300;28;20048;-50
2021/04/28 00:04:25;;;;;;;17.48;11.82;;;;;;;22.27;32.94;93911.53;5093505;28;20051;-50
2021/04/28 00:06:52;;;;;;;17.67;11.10;;;;;;;22.14;33.24;93908.41;5087805;28;20052;-55
2021/04/28 00:09:19;;;;;;;17.75;12.02;;;;;;;21.86;33.42;93908.19;5098976;28;20055;-50
2021/04/28 00:11:46;;;;;;;16.85;10.48;;;;;;;22.34;32.62;93913.47;5098599;28;20493;-50
2021/04/28 00:14:13;;;;;;;16.27;11.20;;;;;;;22.64;32.18;93919.38;5098889;28;20360;-49
2021/04/28 00:16:40;;;;;;;15.02;10.00;;;;;;;22.34;32.93;93921.47;5098974;28;20044;-51
2021/04/28 00:19:07;;;;;;;15.30;10.10;;;;;;;22.38;32.34;93909.72;5099109;28;20047;-50
2021/04/28 00:21:34;;;;;;;14.75;10.80;;;;;;;22.39;32.66;93913.16;5098716;28;20056;-51
2021/04/28 00:24:02;;;;;;;17.10;11.45;;;;;;;22.51;32.18;93915.50;5098409;28;20062;-53
2021/04/28 00:26:28;;;;;;;16.92;11.30;;;;;;;22.32;32.65;93918.41;5098361;28;20350;-50
2021/04/28 00:28:55;;;;;;;19.85;13.90;;;;;;;22.30;32.74;93918.00;5098453;28;20478;-54
2021/04/28 00:31:22;;;;;;;24.25;14.32;;;;;;;23.70;30.67;93914.81;5098974;28;20050;-49
2021/04/28 00:33:49;;;;;;;15.30;10.85;;;;;;;23.61;29.74;93915.94;5105605;28;20051;-50
2021/04/28 00:36:16;;;;;;;16.48;10.95;;;;;;;23.10;31.27;93918.81;5098278;28;20056;-51
2021/04/28 00:38:43;;;;;;;13.10;9.05;;;;;;;25.86;27.04;93921.50;5103850;28;20056;-49
2021/04/28 00:41:10;;;;;;;18.48;10.73;;;;;;;22.02;32.83;93921.97;5078535;28;20482;-50
2021/04/28 00:43:38;;;;;;;15.10;11.13;;;;;;;21.89;33.58;93922.63;5087662;28;20477;-51
2021/04/28 00:46:06;;;;;;;14.05;10.35;;;;;;;22.12;33.00;93926.66;5098069;28;20052;-51
2021/04/28 00:48:34;;;;;;;17.20;10.38;;;;;;;22.18;33.14;93929.75;5098720;28;20059;-48
2021/04/28 00:51:01;;;;;;;15.40;10.75;;;;;;;22.21;33.19;93929.00;5097980;28;20040;-49
2021/04/28 00:53:28;;;;;;;14.25;9.93;;;;;;;21.77;33.99;93935.06;5080159;28;20367;-50
2021/04/28 00:55:56;;;;;;;16.20;11.30;;;;;;;21.30;34.49;93929.66;5076662;28;20060;-49
2021/04/28 00:58:24;;;;;;;15.77;10.85;;;;;;;21.28;34.70;93924.72;5084810;28;20063;-50
2021/04/28 01:00:52;;;;;;;15.68;10.65;;;;;;;21.68;34.07;93917.91;5077896;28;20451;-49
2021/04/28 01:03:26;;;;;;;14.52;9.65;;;;;;;21.81;33.92;93911.16;5084051;28;20055;-53
2021/04/28 01:05:59;;;;;;;19.73;11.75;;;;;;;22.51;32.47;93910.16;5098017;28;20052;-49
2021/04/28 01:08:26;;;;;;;19.85;11.27;;;;;;;22.84;32.40;93895.88;5105198;28;20052;-50
2021/04/28 01:10:54;;;;;;;26.10;12.23;;;;;;;22.37;33.00;93910.06;5097456;28;20382;-49
2021/04/28 01:13:22;;;;;;;22.88;13.15;;;;;;;22.08;33.44;93920.53;5080387;28;20052;-53
2021/04/28 01:15:53;;;;;;;22.15;12.80;;;;;;;22.49;32.76;93912.44;5097301;28;20052;-51
2021/04/28 01:18:21;;;;;;;18.40;11.75;;;;;;;21.96;33.47;93914.72;5097198;28;20556;-53
2021/04/28 01:20:48;;;;;;;25.63;13.60;;;;;;;21.69;34.14;93911.44;5097232;28;20052;-53
2021/04/28 01:23:16;;;;;;;21.58;12.65;;;;;;;22.53;32.91;93909.78;5097237;28;20048;-53
2021/04/28 01:25:45;;;;;;;21.13;12.43;;;;;;;21.80;33.87;93909.63;5101160;28;20052;-51
2021/04/28 01:28:23;;;;;;;21.27;13.38;;;;;;;22.28;33.17;93899.00;5079959;28;20059;-48
2021/04/28 01:30:57;;;;;;;19.77;12.88;;;;;;;22.19;33.50;93901.22;5087093;28;20051;-53
2021/04/28 01:33:38;;;;;;;19.55;12.43;;;;;;;22.14;33.41;93902.34;5086285;28;20468;-49
2021/04/28 01:36:16;;;;;;;17.70;11.68;;;;;;;22.10;33.32;93907.59;5104568;28;20434;-50
2021/04/28 01:38:45;;;;;;;15.95;12.10;;;;;;;21.60;34.26;93901.13;5079334;28;20063;-48
2021/04/28 01:41:12;;;;;;;17.98;11.95;;;;;;;21.89;33.90;93896.78;5097793;28;20370;-49
2021/04/28 01:43:42;;;;;;;17.63;12.25;;;;;;;22.03;33.75;93893.47;5079874;28;20434;-50
2021/04/28 01:46:10;;;;;;;17.33;11.25;;;;;;;21.66;34.17;93896.22;5079482;28;20120;-52
2021/04/28 01:48:38;;;;;;;16.45;11.40;;;;;;;21.99;33.73;93895.34;5097011;28;20059;-50
2021/04/28 01:51:06;;;;;;;18.23;11.68;;;;;;;22.33;32.84;93893.31;5062798;28;20044;-51
2021/04/28 01:53:33;;;;;;;16.85;11.82;;;;;;;22.60;32.77;93891.94;5078729;28;20438;-49
2021/04/28 01:56:00;;;;;;;18.98;11.93;;;;;;;21.72;34.02;93903.50;5078836;28;20430;-51
2021/04/28 01:58:46;;;;;;;18.02;11.68;;;;;;;21.95;33.83;93905.97;5081922;28;20450;-52
2021/04/28 02:01:26;;;;;;;19.33;13.10;;;;;;;22.50;32.96;93903.31;5064167;28;20047;-50
2021/04/28 02:03:56;;;;;;;19.38;12.35;;;;;;;22.06;33.88;93916.69;5079055;28;20064;-54
2021/04/28 02:06:24;;;;;;;21.00;12.90;;;;;;;22.84;32.49;93906.53;5096743;28;20040;-51
2021/04/28 02:08:51;;;;;;;18.58;11.43;;;;;;;21.72;34.04;93918.69;5079171;28;20056;-53
2021/04/28 02:11:18;;;;;;;15.15;10.45;;;;;;;21.97;33.26;93919.66;5096999;28;20051;-48
2021/04/28 02:13:48;;;;;;;14.35;9.05;;;;;;;21.44;34.65;93916.53;5062010;28;20048;-48
2021/04/28 02:16:54;;;;;;;13.98;8.60;;;;;;;21.77;33.62;93910.38;5075082;28;20056;-51
2021/04/28 02:19:23;;;;;;;14.82;8.75;;;;;;;21.64;33.84;93917.88;5062838;28;20454;-51
2021/04/28 02:21:54;;;;;;;11.27;8.77;;;;;;;21.22;35.07;93913.63;5096329;28;20374;-50
2021/04/28 02:24:44;;;;;;;14.40;8.52;;;;;;;21.51;34.40;93912.03;5064784;28;20055;-49
2021/04/28 02:27:12;;;;;;;10.60;7.78;;;;;;;21.63;34.04;93904.94;5078742;28;20063;-50
2021/04/28 02:29:40;;;;;;;13.48;8.45;;;;;;;21.70;33.88;93915.63;5079036;28;20359;-49
2021/04/28 02:32:07;;;;;;;11.73;7.93;;;;;;;21.27;34.98;93906.47;5078874;28;20044;-51
2021/04/28 02:34:57;;;;;;;14.88;8.77;;;;;;;21.73;33.94;93905.03;5095928;28;20050;-49
2021/04/28 02:37:58;;;;;;;12.40;7.40;;;;;;;20.99;35.37;93910.31;5092602;28;20047;-54
2021/04/28 02:40:46;;;;;;;12.55;8.52;;;;;;;21.22;34.55;93907.53;5051003;28;20052;-53
2021/04/28 02:43:14;;;;;;;13.35;7.90;;;;;;;21.50;34.15;93909.75;5078426;28;20048;-49
2021/04/28 02:45:45;;;;;;;12.43;8.35;;;;;;;21.28;34.36;93919.41;5096291;28;20062;-48
2021/04/28 02:48:15;;;;;;;12.88;8.18;;;;;;;21.30;34.37;93919.78;5078588;28;20095;-50
2021/04/28 02:51:00;;;;;;;12.90;7.95;;;;;;;20.83;35.48;93913.19;5077993;28;20331;-51
2021/04/28 02:53:28;;;;;;;13.48;7.85;;;;;;;21.87;33.10;93912.38;5078191;28;20047;-49
2021/04/28 02:55:58;;;;;;;11.82;9.15;;;;;;;21.10;34.51;93921.84;5077197;28;20059;-48
2021/04/28 02:58:26;;;;;;;12.10;7.93;;;;;;;20.78;35.12;93921.44;5061828;28;20055;-51
2021/04/28 03:01:06;;;;;;;11.40;7.70;;;;;;;20.66;35.32;93924.34;5096255;28;20052;-49
2021/04/28 03:03:34;;;;;;;13.32;7.70;;;;;;;21.06;34.43;93925.56;5084605;28;20040;-50
2021/04/28 03:06:10;;;;;;;10.73;7.78;;;;;;;21.06;34.53;93930.88;5062387;28;20461;-48
2021/04/28 03:08:49;;;;;;;12.73;8.20;;;;;;;21.23;33.79;93933.00;5078128;28;20476;-51
2021/04/28 03:11:17;;;;;;;12.15;8.38;;;;;;;21.41;33.53;93928.66;5095902;28;20055;-49
2021/04/28 03:13:46;;;;;;;14.27;8.45;;;;;;;22.14;32.40;93928.94;5067866;28;20039;-52
2021/04/28 03:16:14;;;;;;;11.68;9.02;;;;;;;22.69;30.63;93936.91;5077893;28;20059;-51
2021/04/28 03:18:42;;;;;;;13.85;9.05;;;;;;;22.36;31.41;93937.81;5061396;28;20048;-52
2021/04/28 03:21:10;;;;;;;14.38;9.30;;;;;;;21.68;32.86;93937.28;5077719;28;20094;-52
2021/04/28 03:23:40;;;;;;;11.75;8.20;;;;;;;22.85;30.79;93944.63;5077235;28;20052;-52
2021/04/28 03:26:10;;;;;;;12.20;9.05;;;;;;;21.96;32.17;93939.41;5048412;28;20056;-50
2021/04/28 03:28:39;;;;;;;12.82;8.93;;;;;;;22.59;31.16;93941.03;5057636;28;20052;-50
2021/04/28 03:31:06;;;;;;;15.00;9.52;;;;;;;21.25;33.63;93944.06;5075687;28;20477;-50
2021/04/28 03:33:34;;;;;;;14.15;8.90;;;;;;;20.91;34.48;93954.66;5059981;28;20052;-50
2021/04/28 03:36:05;;;;;;;13.65;8.93;;;;;;;21.17;34.03;93953.06;5077429;28;20051;-49
2021/04/28 03:38:32;;;;;;;16.17;9.48;;;;;;;22.66;31.75;93954.41;5102558;28;20048;-51
2021/04/28 03:41:03;;;;;;;12.48;9.38;;;;;;;21.45;33.59;93969.34;5077622;28;20458;-50
2021/04/28 03:43:30;;;;;;;14.27;8.98;;;;;;;21.24;33.86;93967.22;5083212;28;20056;-49
2021/04/28 03:45:57;;;;;;;11.00;8.77;;;;;;;21.48;33.42;93968.63;5080596;28;20055;-48
2021/04/28 03:48:36;;;;;;;12.85;8.90;;;;;;;20.30;35.14;93974.28;5057368;28;20060;-50
2021/04/28 03:51:04;;;;;;;14.90;9.50;;;;;;;20.49;35.20;93967.34;5062009;28;20056;-55
2021/04/28 03:53:32;;;;;;;16.20;9.57;;;;;;;21.14;33.96;93972.38;5077745;28;20060;-53
2021/04/28 03:56:00;;;;;;;18.80;9.63;;;;;;;20.57;34.73;93971.66;5079663;28;20053;-54
2021/04/28 03:58:26;;;;;;;17.98;9.75;;;;;;;20.70;34.58;93972.94;5040203;28;20056;-49
2021/04/28 04:01:03;;;;;;;17.55;10.10;;;;;;;21.29;33.64;93971.44;5074734;28;20442;-49
2021/04/28 04:03:34;;;;;;;17.63;10.15;;;;;;;21.18;33.48;93975.84;5059547;28;20355;-49
2021/04/28 04:06:20;;;;;;;14.93;10.07;;;;;;;21.24;33.44;93979.72;5101882;28;20397;-49
2021/04/28 04:09:22;;;;;;;16.52;10.57;;;;;;;21.35;33.54;93972.66;5020060;28;20052;-50
2021/04/28 04:11:51;;;;;;;17.15;10.88;;;;;;;22.13;32.64;93980.66;5065217;28;20051;-50
2021/04/28 04:14:23;;;;;;;13.52;10.30;;;;;;;22.70;31.71;93981.81;5092506;28;20087;-49
2021/04/28 04:16:53;;;;;;;14.70;8.43;;;;;;;25.12;27.50;93987.63;5077016;28;20063;-51
2021/04/28 04:19:20;;;;;;;12.55;7.80;;;;;;;24.79;27.52;93990.72;5056654;28;20335;-50
2021/04/28 04:22:07;;;;;;;14.35;8.93;;;;;;;22.96;30.67;93988.09;5087915;28;20055;-49
2021/04/28 04:25:06;;;;;;;16.88;10.10;;;;;;;25.73;26.77;93993.47;5039762;28;20049;-53
2021/04/28 04:27:33;;;;;;;16.52;8.90;;;;;;;24.21;28.85;93992.66;5058952;28;20127;-49
2021/04/28 04:30:13;;;;;;;19.25;11.55;;;;;;;24.49;29.22;93994.59;5085841;28;20055;-49
2021/04/28 04:32:59;;;;;;;15.13;10.07;;;;;;;24.93;28.83;93993.34;5087359;28;20377;-47
2021/04/28 04:35:45;;;;;;;16.58;10.65;;;;;;;25.59;28.21;93995.47;5094115;28;20438;-46
2021/04/28 04:38:30;;;;;;;15.88;10.65;;;;;;;26.84;26.42;93998.81;5094880;28;20051;-48
2021/04/28 04:41:16;;;;;;;16.75;11.60;;;;;;;25.26;28.83;94002.88;5100916;28;20058;-50
2021/04/28 04:44:03;;;;;;;21.60;13.32;;;;;;;26.65;26.97;94007.41;5065025;28;20374;-49
2021/04/28 04:46:40;;;;;;;22.25;14.30;;;;;;;26.79;26.68;94006.50;5083189;28;20040;-69
2021/04/28 04:49:07;;;;;;;29.50;16.98;;;;;;;27.41;26.07;94010.88;5077919;28;20370;-47
2021/04/28 04:51:34;;;;;;;27.60;17.00;;;;;;;27.98;25.13;94013.63;5086754;28;20055;-49
2021/04/28 04:54:01;;;;;;;25.70;16.70;;;;;;;27.18;25.11;94027.63;5096578;28;20566;-48
2021/04/28 04:56:27;;;;;;;25.60;14.48;;;;;;;25.25;27.74;94024.66;5097755;28;20487;-47
2021/04/28 04:58:54;;;;;;;20.67;12.93;;;;;;;24.55;28.77;94027.03;5097505;28;20052;-49
2021/04/28 05:01:21;;;;;;;16.80;12.18;;;;;;;25.37;27.72;94022.28;5098269;28;20055;-48
2021/04/28 05:03:48;;;;;;;16.63;11.38;;;;;;;24.11;29.38;94004.06;5098228;28;20052;-48
2021/04/28 05:06:16;;;;;;;15.65;11.23;;;;;;;25.63;27.54;93999.63;5085225;28;20074;-47
2021/04/28 05:08:43;;;;;;;16.52;10.07;;;;;;;23.89;29.96;93992.59;5078028;28;20052;-47
2021/04/28 05:11:10;;;;;;;19.55;11.88;;;;;;;24.31;29.36;93998.41;5084899;28;20056;-49
2021/04/28 05:13:37;;;;;;;14.57;10.20;;;;;;;24.09;29.75;93997.59;5078622;28;20052;-47
2021/04/28 05:16:04;;;;;;;16.38;11.70;;;;;;;24.51;29.23;94008.31;5098121;28;20455;-48
2021/04/28 05:18:31;;;;;;;17.52;10.80;;;;;;;24.88;28.76;94005.22;5097539;28;20058;-47
2021/04/28 05:20:58;;;;;;;16.73;11.02;;;;;;;24.24;30.01;94007.16;5097312;28;20378;-47
2021/04/28 05:23:24;;;;;;;14.88;10.98;;;;;;;23.93;30.47;94024.63;5079944;28;20362;-46
2021/04/28 05:26:10;;;;;;;18.58;11.40;;;;;;;24.37;29.83;94035.03;5100002;28;20047;-48
2021/04/28 05:28:37;;;;;;;14.00;10.80;;;;;;;24.58;29.09;94035.03;5097821;28;20048;-47
2021/04/28 05:31:04;;;;;;;20.05;12.43;;;;;;;25.21;28.16;94033.41;5097972;28;20056;-47
2021/04/28 05:33:30;;;;;;;19.35;12.00;;;;;;;25.49;27.48;94037.16;5088457;28;20355;-48
2021/04/28 05:35:57;;;;;;;16.55;12.15;;;;;;;25.46;27.35;94032.56;5103940;28;20446;-47
2021/04/28 05:38:24;;;;;;;18.85;11.65;;;;;;;25.80;26.89;94014.88;5097864;28;20354;-45
2021/04/28 05:40:51;;;;;;;19.15;12.43;;;;;;;25.89;26.72;93994.94;5079568;28;20052;-49
2021/04/28 05:43:18;;;;;;;17.65;11.93;;;;;;;25.20;27.87;93997.13;5059552;28;20044;-47
2021/04/28 05:45:45;;;;;;;17.73;11.50;;;;;;;25.96;27.00;94001.00;5094930;28;20375;-49
2021/04/28 05:48:14;;;;;;;22.92;15.43;;;;;;;26.65;25.69;93985.97;5081791;28;20045;-46
2021/04/28 05:50:42;;;;;;;32.88;21.58;;;;;;;27.08;25.76;93985.56;5085193;28;20055;-48
2021/04/28 05:53:10;;;;;;;30.85;23.02;;;;;;;26.98;25.69;93987.16;5091280;28;20363;-50
2021/04/28 05:55:37;;;;;;;27.60;18.35;;;;;;;27.37;24.00;93986.75;5058541;28;20052;-48
2021/04/28 05:58:05;;;;;;;28.55;19.48;;;;;;;26.92;24.83;93988.75;5096725;28;20067;-47
2021/04/28 06:00:33;;;;;;;19.65;13.07;;;;;;;27.22;23.86;93988.09;5096580;28;20051;-48
2021/04/28 06:03:04;;;;;;;16.73;10.77;;;;;;;26.95;23.08;93988.72;5086047;28;20050;-50
2021/04/28 06:05:31;;;;;;;14.73;9.73;;;;;;;26.87;23.28;93992.66;5096359;28;20055;-49
2021/04/28 06:07:58;;;;;;;14.35;9.48;;;;;;;27.31;22.52;93993.72;5103847;28;20077;-48
2021/04/28 06:10:25;;;;;;;13.10;8.20;;;;;;;28.12;21.58;93997.31;5078853;28;20492;-48
2021/04/28 06:12:52;;;;;;;12.05;9.38;;;;;;;27.67;22.31;94004.81;5091389;28;20048;-48
2021/04/28 06:15:19;;;;;;;14.32;8.13;;;;;;;27.19;22.43;93996.94;5089659;28;20434;-49
2021/04/28 06:17:46;;;;;;;12.40;7.85;;;;;;;27.41;22.25;94000.91;5096455;28;20048;-48
2021/04/28 06:20:15;;;;;;;11.10;8.27;;;;;;;28.73;21.20;94002.50;5096351;28;20044;-50
2021/04/28 06:22:43;;;;;;;12.27;9.07;;;;;;;27.67;21.89;94006.75;5096700;28;20460;-47
2021/04/28 06:25:12;;;;;;;9.57;7.65;;;;;;;28.30;21.64;94001.66;5092251;28;20434;-47
2021/04/28 06:27:38;;;;;;;27.77;17.88;;;;;;;29.12;20.67;93999.13;5076059;28;20048;-47
2021/04/28 06:30:07;;;;;;;14.13;8.88;;;;;;;28.32;20.40;94004.69;5076397;28;20055;-52
2021/04/28 06:32:34;;;;;;;12.57;7.47;;;;;;;28.08;20.30;94009.25;5076151;28;20055;-47
2021/04/28 06:35:02;;;;;;;9.25;6.88;;;;;;;27.78;20.96;94007.34;5092680;28;20363;-48
2021/04/28 06:37:29;;;;;;;10.18;7.05;;;;;;;28.24;21.30;94020.94;5096276;28;20058;-47
2021/04/28 06:39:56;;;;;;;11.23;6.68;;;;;;;28.68;20.40;94015.66;5103250;28;20051;-48
2021/04/28 06:42:23;;;;;;;10.63;7.28;;;;;;;28.84;19.85;94019.19;5096358;28;20046;-50
2021/04/28 06:44:50;;;;;;;10.52;6.93;;;;;;;28.54;20.75;94020.09;5087384;28;20047;-51
2021/04/28 06:47:17;;;;;;;9.63;6.38;;;;;;;29.03;19.98;94025.06;5103178;28;20051;-50
2021/04/28 06:49:43;;;;;;;12.65;7.45;;;;;;;30.06;18.51;94028.44;5096254;28;20078;-50
2021/04/28 06:52:11;;;;;;;10.32;7.35;;;;;;;29.39;19.67;94017.06;5103017;28;20044;-48
2021/04/28 06:54:38;;;;;;;10.27;6.07;;;;;;;29.93;20.22;94022.94;5102249;28;20353;-48
2021/04/28 06:57:05;;;;;;;11.40;6.32;;;;;;;29.80;19.59;94024.75;5102839;28;20048;-47
2021/04/28 06:59:32;;;;;;;8.30;5.75;;;;;;;29.78;19.68;94025.16;5096072;28;20048;-49
2021/04/28 07:01:59;;;;;;;9.48;6.03;;;;;;;30.33;18.43;94036.31;5097361;28;20048;-50
2021/04/28 07:04:26;;;;;;;11.75;8.52;;;;;;;29.78;19.66;94027.09;5086396;28;20354;-48
2021/04/28 07:06:53;;;;;;;11.23;7.78;;;;;;;30.49;19.11;94033.66;5102589;28;20044;-52
2021/04/28 07:09:20;;;;;;;12.68;10.50;;;;;;;30.39;18.74;94034.63;5094942;28;20047;-51
2021/04/28 07:11:47;;;;;;;10.75;7.57;;;;;;;30.49;18.01;94030.94;5077794;28;20048;-51
2021/04/28 07:14:16;;;;;;;11.57;8.07;;;;;;;30.63;17.63;94040.66;5095516;28;20043;-50
2021/04/28 07:16:44;;;;;;;19.23;13.15;;;;;;;30.57;17.80;94039.63;5095165;28;20060;-47
2021/04/28 07:19:11;;;;;;;10.15;6.95;;;;;;;30.56;17.44;94036.16;5095795;28;20055;-48
2021/04/28 07:21:38;;;;;;;12.68;6.00;;;;;;;30.33;18.24;94028.22;5102277;28;20355;-48
2021/04/28 07:24:05;;;;;;;8.82;5.50;;;;;;;31.14;18.17;94039.00;5095433;28;20083;-49
2021/04/28 07:26:33;;;;;;;10.57;6.57;;;;;;;30.71;17.52;94043.94;5096878;28;20055;-49
2021/04/28 07:29:02;;;;;;;7.07;5.22;;;;;;;31.28;17.62;94044.06;5086482;28;20048;-47
2021/04/28 07:31:30;;;;;;;7.07;4.82;;;;;;;31.04;17.60;94033.88;5075468;28;20073;-47
2021/04/28 07:33:58;;;;;;;7.53;4.82;;;;;;;31.51;16.76;94039.59;5075030;28;20068;-47
2021/04/28 07:36:25;;;;;;;8.48;5.20;;;;;;;31.30;16.71;94035.53;5093972;28;20056;-47
2021/04/28 07:38:52;;;;;;;7.85;5.85;;;;;;;30.22;17.60;94033.13;5077295;28;20063;-48
2021/04/28 07:41:19;;;;;;;13.05;9.48;;;;;;;30.57;17.11;94032.28;5094864;28;20055;-47
2021/04/28 07:43:46;;;;;;;11.40;7.35;;;;;;;31.65;16.51;94033.78;5095107;28;20048;-48
2021/04/28 07:46:14;;;;;;;8.77;5.57;;;;;;;30.80;17.61;94031.38;5094716;28;20048;-48
2021/04/28 07:48:41;;;;;;;9.50;4.95;;;;;;;30.96;17.14;94034.03;5102133;28;20358;-49
2021/04/28 07:51:08;;;;;;;6.95;5.53;;;;;;;31.19;16.62;94046.59;5102165;28;20438;-49
2021/04/28 07:53:35;;;;;;;12.48;5.78;;;;;;;30.74;16.86;94035.03;5095085;28;20489;-49
2021/04/28 07:56:02;;;;;;;8.23;5.55;;;;;;;31.01;17.42;94019.28;5097665;28;20048;-49
2021/04/28 07:58:28;;;;;;;8.90;5.03;;;;;;;31.21;17.01;94028.03;5102157;28;20047;-47
2021/04/28 08:00:56;;;;;;;6.72;4.72;;;;;;;32.00;16.38;94028.56;5102079;28;20489;-49
2021/04/28 08:03:23;;;;;;;8.25;5.15;;;;;;;31.55;16.28;94026.75;5095072;28;20055;-47
2021/04/28 08:05:50;;;;;;;8.05;5.07;;;;;;;31.31;16.64;94025.47;5101620;28;20047;-49
2021/04/28 08:08:17;;;;;;;8.82;4.68;;;;;;;31.31;16.93;94020.09;5101972;28;20051;-50
2021/04/28 08:10:44;;;;;;;8.50;4.97;;;;;;;31.81;16.25;94025.66;5101933;28;20048;-48
2021/04/28 08:13:11;;;;;;;10.15;5.07;;;;;;;35.50;13.32;94027.22;5085708;28;20044;-48
2021/04/28 08:15:39;;;;;;;8.30;5.50;;;;;;;32.09;16.08;94028.69;5068130;28;20051;-49
2021/04/28 08:18:07;;;;;;;7.97;5.65;;;;;;;32.58;15.40;94026.44;5094558;28;20443;-52
2021/04/28 08:20:37;;;;;;;7.88;5.43;;;;;;;31.14;17.08;94025.50;5096134;28;20059;-53
2021/04/28 08:23:04;;;;;;;8.68;5.40;;;;;;;31.41;16.57;94019.03;5105836;28;20032;-52
2021/04/28 08:25:31;;;;;;;6.50;5.00;;;;;;;31.14;16.70;94022.78;5098492;28;20362;-51
2021/04/28 08:27:59;;;;;;;9.43;5.68;;;;;;;32.41;15.44;94006.84;5099141;28;20331;-49
2021/04/28 08:30:26;;;;;;;8.93;5.15;;;;;;;31.71;16.25;94007.78;5099061;28;20046;-56
2021/04/28 08:32:53;;;;;;;7.43;5.10;;;;;;;31.73;16.71;94010.81;5098700;28;20410;-51
2021/04/28 08:35:20;;;;;;;7.72;5.20;;;;;;;31.58;16.43;94015.84;5105492;28;20055;-48
2021/04/28 08:37:49;;;;;;;10.02;6.00;;;;;;;31.60;16.44;94007.31;5105706;28;20458;-61
2021/04/28 08:40:16;;;;;;;7.22;5.28;;;;;;;31.58;16.92;94004.28;5105717;28;20480;-53
2021/04/28 08:42:44;;;;;;;9.02;5.00;;;;;;;31.15;16.67;94008.09;5098873;28;20048;-49
2021/04/28 08:45:11;;;;;;;7.40;5.22;;;;;;;32.91;15.34;94005.28;5097899;28;20051;-47
2021/04/28 08:47:40;;;;;;;9.43;5.38;;;;;;;31.00;17.12;94012.38;5105731;28;20472;-50
2021/04/28 08:50:08;;;;;;;7.13;5.20;;;;;;;32.10;15.95;94006.63;5105344;28;20058;-50
2021/04/28 08:52:39;;;;;;;7.07;4.72;;;;;;;31.89;16.50;94010.72;5097975;28;20060;-49
2021/04/28 08:55:10;;;;;;;8.48;5.18;;;;;;;31.44;16.98;94012.75;5097565;28;20052;-52
2021/04/28 08:57:37;;;;;;;8.75;5.55;;;;;;;31.40;17.25;93993.97;5098178;28;20354;-48
2021/04/28 09:00:06;;;;;;;9.88;5.88;;;;;;;31.81;16.57;93998.63;5105231;28;20474;-49
2021/04/28 09:02:33;;;;;;;5.78;4.90;;;;;;;31.65;16.78;94001.38;5105026;28;20362;-51
2021/04/28 09:05:11;;;;;;;7.95;5.10;;;;;;;31.53;16.95;94007.50;5104683;28;20082;-49
2021/04/28 09:07:43;;;;;;;9.57;5.40;;;;;;;31.82;16.74;94010.94;5097940;28;20039;-48
2021/04/28 09:10:14;;;;;;;8.45;5.32;;;;;;;31.69;16.91;94006.66;5098364;28;20051;-51
2021/04/28 09:12:49;;;;;;;8.77;5.57;;;;;;;32.47;16.38;93999.69;5098121;28;20374;-47
2021/04/28 09:15:35;;;;;;;8.02;5.07;;;;;;;31.96;17.18;93987.38;5091335;28;20381;-48
2021/04/28 09:18:03;;;;;;;6.03;4.85;;;;;;;32.82;16.10;93983.56;5104772;28;20371;-50
2021/04/28 09:20:52;;;;;;;5.88;4.80;;;;;;;31.74;16.38;93988.00;5104385;28;20055;-48
2021/04/28 09:23:28;;;;;;;7.50;4.75;;;;;;;32.73;15.76;93989.59;5097353;28;20056;-50
2021/04/28 09:26:17;;;;;;;10.40;4.93;;;;;;;31.62;16.93;93986.03;5097337;28;20051;-49
2021/04/28 09:28:56;;;;;;;7.78;4.82;;;;;;;31.69;17.10;93985.06;5097624;28;20048;-52
2021/04/28 09:31:23;;;;;;;7.78;4.57;;;;;;;32.67;16.10;93974.34;5104290;28;20327;-50
2021/04/28 09:33:58;;;;;;;8.63;4.95;;;;;;;32.12;16.56;93973.75;5097103;28;20052;-49
2021/04/28 09:36:39;;;;;;;6.90;4.70;;;;;;;32.50;16.63;93977.19;5101744;28;20047;-46
2021/04/28 09:39:08;;;;;;;7.72;5.25;;;;;;;31.65;16.74;93979.75;5104481;28;20059;-49
2021/04/28 09:41:46;;;;;;;8.50;4.72;;;;;;;32.01;16.92;93967.91;5104408;28;20458;-51
2021/04/28 09:44:29;;;;;;;7.80;4.72;;;;;;;31.34;17.61;93965.22;5104366;28;20358;-52
2021/04/28 09:47:05;;;;;;;7.97;4.75;;;;;;;31.81;16.73;93963.50;5103910;28;20048;-48
2021/04/28 09:50:00;;;;;;;7.13;4.47;;;;;;;33.45;14.94;93960.88;5096766;28;20055;-48
2021/04/28 09:52:30;;;;;;;5.88;4.68;;;;;;;30.82;17.71;93963.50;5104209;28;20465;-50
2021/04/28 09:55:03;;;;;;;6.40;4.38;;;;;;;33.46;15.05;93954.25;5096054;28;20055;-49
2021/04/28 09:57:45;;;;;;;8.85;5.05;;;;;;;33.11;15.68;93951.59;5097250;28;20051;-49
2021/04/28 10:00:16;;;;;;;8.70;4.70;;;;;;;31.35;17.31;93958.63;5104206;28;20044;-48
2021/04/28 10:02:57;;;;;;;6.30;4.60;;;;;;;31.86;17.01;93944.03;5102994;28;20052;-51
2021/04/28 10:05:24;;;;;;;9.55;5.25;;;;;;;31.66;16.94;93942.69;5096778;28;20044;-49
2021/04/28 10:07:53;;;;;;;6.85;4.70;;;;;;;32.16;16.61;93944.66;5096643;28;20485;-49
2021/04/28 10:10:22;;;;;;;7.03;4.80;;;;;;;33.04;15.59;93943.69;5097023;28;20063;-50
2021/04/28 10:12:49;;;;;;;6.53;4.60;;;;;;;31.87;16.85;93942.84;5096891;28;20055;-51
2021/04/28 10:15:18;;;;;;;7.35;4.65;;;;;;;31.15;17.52;93937.16;5103231;28;20044;-47
2021/04/28 10:17:45;;;;;;;7.28;4.90;;;;;;;31.48;17.29;93946.66;5103661;28;20048;-47
2021/04/28 10:20:13;;;;;;;6.63;4.90;;;;;;;31.60;16.80;93928.97;5096854;28;20043;-49
2021/04/28 10:22:41;;;;;;;5.53;4.65;;;;;;;32.31;16.63;93932.25;5080504;28;20051;-49
2021/04/28 10:25:09;;;;;;;5.93;4.57;;;;;;;32.73;16.51;93923.88;5084775;28;20043;-50
2021/04/28 10:27:39;;;;;;;7.78;4.82;;;;;;;31.32;17.26;93913.59;5085914;28;20058;-48
2021/04/28 10:30:07;;;;;;;8.77;4.80;;;;;;;32.15;16.89;93908.00;5103384;28;20516;-49
2021/04/28 10:32:37;;;;;;;8.35;5.20;;;;;;;31.61;16.98;93906.16;5103328;28;20048;-50
2021/04/28 10:35:21;;;;;;;6.40;4.55;;;;;;;32.04;16.61;93918.41;5096238;28;20047;-47
2021/04/28 10:37:51;;;;;;;7.32;4.75;;;;;;;32.30;16.70;93933.44;5078344;28;20051;-49
2021/04/28 10:40:20;;;;;;;6.57;4.55;;;;;;;32.05;16.39;93941.56;5085471;28;20059;-50
2021/04/28 10:42:48;;;;;;;6.00;4.60;;;;;;;31.41;17.37;93930.66;5102992;28;20339;-47
2021/04/28 10:45:23;;;;;;;5.80;4.38;;;;;;;31.83;17.40;93919.81;5094509;28;20059;-47
2021/04/28 10:47:51;;;;;;;7.55;5.10;;;;;;;31.29;17.37;93920.63;5103352;28;20044;-49
2021/04/28 10:50:38;;;;;;;9.45;4.50;;;;;;;31.69;17.25;93914.81;5096252;28;20048;-48
2021/04/28 10:53:28;;;;;;;5.30;4.40;;;;;;;32.96;15.57;93901.09;5075612;28;20044;-47
2021/04/28 10:56:03;;;;;;;5.10;4.13;;;;;;;32.78;17.02;93893.56;5065570;28;20043;-49
2021/04/28 10:58:31;;;;;;;5.90;4.32;;;;;;;32.55;16.70;93902.09;5058314;28;20040;-48
2021/04/28 11:01:05;;;;;;;6.05;4.20;;;;;;;31.78;17.20;93907.63;5092077;28;20438;-50
2021/04/28 11:03:36;;;;;;;7.18;4.65;;;;;;;32.43;16.20;93890.88;5095842;28;20052;-51
2021/04/28 11:06:21;;;;;;;9.13;4.82;;;;;;;32.12;17.19;93893.41;5096059;28;20055;-50
2021/04/28 11:09:02;;;;;;;7.22;4.20;;;;;;;31.84;16.87;93897.78;5094849;28;20055;-54
2021/04/28 11:11:32;;;;;;;6.78;4.38;;;;;;;33.53;15.42;93897.09;5096396;28;20458;-48
2021/04/28 11:16:44;;;;;;;9.05;4.43;;;;;;;31.12;17.84;93879.41;5102747;28;20036;-61
2021/04/28 11:19:19;;;;;;;7.60;4.32;;;;;;;32.28;16.52;93864.75;5102710;28;20048;-59
2021/04/28 11:21:47;;;;;;;5.90;4.40;;;;;;;32.08;16.79;93859.59;5102345;28;20366;-54
2021/04/28 11:24:15;;;;;;;5.63;4.15;;;;;;;31.84;17.27;93862.63;5077955;28;20058;-54
2021/04/28 11:26:52;;;;;;;5.55;4.18;;;;;;;31.94;16.75;93860.03;5095385;28;20052;-48
2021/04/28 11:29:20;;;;;;;8.38;4.53;;;;;;;32.16;16.99;93855.44;5102585;28;20051;-48
2021/04/28 11:31:53;;;;;;;6.13;4.18;;;;;;;31.77;16.94;93857.47;5102372;28;20062;-51
2021/04/28 11:34:34;;;;;;;5.82;4.57;;;;;;;33.23;15.68;93851.75;5095723;28;20059;-49
2021/04/28 11:37:06;;;;;;;12.35;9.82;;;;;;;32.22;16.50;93859.09;5095013;28;20363;-51
2021/04/28 11:39:33;;;;;;;8.68;4.57;;;;;;;32.87;16.47;93855.78;5102533;28;20067;-57
2021/04/28 11:42:08;;;;;;;6.65;4.15;;;;;;;32.85;15.96;93855.47;5094827;28;20477;-48
2021/04/28 11:44:39;;;;;;;5.60;3.80;;;;;;;34.18;14.83;93847.31;5102295;28;20462;-54